Time;durP1;ratioP1;P1;durP2;ratioP2;P2;SDS_P1;SDS_P2;PMS_P1;PMS_P2;Temp;Humidity;BMP_temperature;BMP_pressure;BME280_temperature;BME280_humidity;BME280_pressure;Samples;Min_cycle;Max_cycle;Signal;HPM_P1;HPM_P2
2021/04/07 00:00:17;;;;;;;;;;;;;;;0.24;100.00;99749.34;5091052;28;20054;-71
2021/04/07 00:02:43;;;;;;;;;;;;;;;0.24;100.00;99744.00;5090939;28;19924;-71
2021/04/07 00:05:10;;;;;;;;;;;;;;;0.27;100.00;99746.53;5090840;28;19947;-71
2021/04/07 00:07:36;;;;;;;;;;;;;;;0.24;100.00;99749.34;5090957;28;20027;-71
2021/04/07 00:10:04;;;;;;;;;;;;;;;0.21;100.00;99749.50;5072960;28;19924;-71
2021/04/07 00:12:30;;;;;;;;;;;;;;;0.21;100.00;99746.84;5090658;28;20362;-71
2021/04/07 00:14:56;;;;;;;;;;;;;;;0.22;100.00;99756.56;5106283;28;19924;-72
2021/04/07 00:17:22;;;;;;;;;;;;;;;0.19;100.00;99746.94;5090538;28;20024;-72
2021/04/07 00:19:48;;;;;;;;;;;;;;;0.22;100.00;99743.22;5091108;28;19928;-71
2021/04/07 00:22:14;;;;;;;;;;;;;;;0.25;100.00;99756.41;5091238;28;19925;-72
2021/04/07 00:24:40;;;;;;;;;;;;;;;0.24;100.00;99752.88;5091652;28;20426;-71
2021/04/07 00:27:09;;;;;;;;;;;;;;;0.22;100.00;99748.56;5092103;28;19931;-71
2021/04/07 00:29:36;;;;;;;;;;;;;;;0.21;100.00;99754.84;5091282;28;20387;-71
2021/04/07 00:32:02;;;;;;;;;;;;;;;0.22;100.00;99757.44;5090977;28;19969;-72
2021/04/07 00:34:28;;;;;;;;;;;;;;;0.21;100.00;99758.38;5090807;28;19928;-71
2021/04/07 00:36:54;;;;;;;;;;;;;;;0.25;100.00;99756.41;5090666;28;19924;-71
2021/04/07 00:39:20;;;;;;;;;;;;;;;0.25;100.00;99764.41;5090957;28;19928;-71
2021/04/07 00:41:45;;;;;;;;;;;;;;;0.24;100.00;99758.22;5091174;28;20371;-71
2021/04/07 00:44:11;;;;;;;;;;;;;;;0.26;100.00;99766.16;5094409;28;20007;-71
2021/04/07 00:46:38;;;;;;;;;;;;;;;0.26;100.00;99771.47;5094041;28;19959;-72
2021/04/07 00:49:04;;;;;;;;;;;;;;;0.26;100.00;99768.81;5077250;28;19924;-71
2021/04/07 00:51:30;;;;;;;;;;;;;;;0.25;100.00;99769.75;5076127;28;19924;-73
2021/04/07 00:53:56;;;;;;;;;;;;;;;0.26;100.00;99776.81;5073013;28;19977;-72
2021/04/07 00:56:22;;;;;;;;;;;;;;;0.24;100.00;99771.56;5090878;28;19969;-72
2021/04/07 00:58:48;;;;;;;;;;;;;;;0.23;100.00;99771.63;5090699;28;19973;-71
2021/04/07 01:01:13;;;;;;;;;;;;;;;0.22;100.00;99772.59;5090716;28;19963;-71
2021/04/07 01:03:40;;;;;;;;;;;;;;;0.22;100.00;99783.28;5090897;28;19924;-71
2021/04/07 01:06:06;;;;;;;;;;;;;;;0.21;100.00;99781.53;5094432;28;19924;-71
2021/04/07 01:08:32;;;;;;;;;;;;;;;0.18;100.00;99787.06;5094388;28;19931;-72
2021/04/07 01:10:58;;;;;;;;;;;;;;;0.21;100.00;99779.72;5094414;28;19997;-71
2021/04/07 01:13:24;;;;;;;;;;;;;;;0.18;100.00;99779.03;5094046;28;20444;-71
2021/04/07 01:15:50;;;;;;;;;;;;;;;0.23;100.00;99784.97;5094034;28;19924;-71
2021/04/07 01:18:16;;;;;;;;;;;;;;;0.22;100.00;99785.94;5094129;28;19977;-72
2021/04/07 01:20:43;;;;;;;;;;;;;;;0.22;100.00;99789.47;5094287;28;19935;-71
2021/04/07 01:23:09;;;;;;;;;;;;;;;0.22;100.00;99791.28;5094035;28;19924;-72
2021/04/07 01:25:36;;;;;;;;;;;;;;;0.21;100.00;99782.38;5093891;28;20399;-71
2021/04/07 01:28:02;;;;;;;;;;;;;;;0.20;100.00;99778.03;5093916;28;19928;-71
2021/04/07 01:30:28;;;;;;;;;;;;;;;0.20;100.00;99787.81;5094359;28;20391;-72
2021/04/07 01:32:54;;;;;;;;;;;;;;;0.21;100.00;99784.22;5093885;28;19924;-71
2021/04/07 01:35:20;;;;;;;;;;;;;;;0.22;100.00;99784.13;5093653;28;19928;-72
2021/04/07 01:37:46;;;;;;;;;;;;;;;0.21;100.00;99786.88;5093856;28;20026;-71
2021/04/07 01:40:14;;;;;;;;;;;;;;;0.20;100.00;99782.47;5093680;28;19931;-72
2021/04/07 01:42:41;;;;;;;;;;;;;;;0.18;100.00;99784.38;5093855;28;20029;-72
2021/04/07 01:45:07;;;;;;;;;;;;;;;0.17;100.00;99780.84;5093541;28;19924;-71
2021/04/07 01:47:33;;;;;;;;;;;;;;;0.16;100.00;99788.00;5093621;28;19955;-71
2021/04/07 01:50:00;;;;;;;;;;;;;;;0.14;100.00;99783.69;5093999;28;19969;-72
2021/04/07 01:52:26;;;;;;;;;;;;;;;0.13;100.00;99788.16;5093507;28;19946;-72
2021/04/07 01:54:52;;;;;;;;;;;;;;;0.12;100.00;99791.75;5093707;28;19928;-71
2021/04/07 01:57:18;;;;;;;;;;;;;;;0.10;100.00;99793.63;5092930;28;20027;-71
2021/04/07 01:59:44;;;;;;;;;;;;;;;0.12;100.00;99786.44;5093559;28;19963;-71
2021/04/07 02:02:10;;;;;;;;;;;;;;;0.10;100.00;99790.97;5093083;28;19931;-71
2021/04/07 02:04:36;;;;;;;;;;;;;;;0.14;100.00;99797.03;5093298;28;19963;-71
2021/04/07 02:07:10;;;;;;;;;;;;;;;0.14;100.00;99794.34;5093361;28;19924;-71
2021/04/07 02:09:36;;;;;;;;;;;;;;;0.11;100.00;99803.38;5093421;28;19928;-71
2021/04/07 02:12:02;;;;;;;;;;;;;;;0.11;100.00;99815.88;5093139;28;19924;-72
2021/04/07 02:14:28;;;;;;;;;;;;;;;0.13;100.00;99814.84;5092979;28;20433;-71
2021/04/07 02:16:55;;;;;;;;;;;;;;;0.14;100.00;99813.88;5092885;28;19962;-71
2021/04/07 02:19:21;;;;;;;;;;;;;;;0.12;100.00;99815.78;5092990;28;19924;-71
2021/04/07 02:21:52;;;;;;;;;;;;;;;0.11;100.00;99824.72;5092832;28;19924;-71
2021/04/07 02:24:18;;;;;;;;;;;;;;;0.08;100.00;99810.66;5074621;28;19935;-71
2021/04/07 02:26:44;;;;;;;;;;;;;;;0.13;100.00;99825.53;5092731;28;19924;-71
2021/04/07 02:29:12;;;;;;;;;;;;;;;0.10;100.00;99820.31;5092878;28;19963;-71
2021/04/07 02:31:38;;;;;;;;;;;;;;;0.06;100.00;99824.09;5092835;28;19967;-71
2021/04/07 02:34:05;;;;;;;;;;;;;;;0.02;100.00;99822.53;5074729;28;19947;-71
2021/04/07 02:36:31;;;;;;;;;;;;;;;0.03;100.00;99831.41;5092722;28;20444;-71
2021/04/07 02:38:56;;;;;;;;;;;;;;;0.01;100.00;99838.63;5092511;28;20022;-71
2021/04/07 02:41:22;;;;;;;;;;;;;;;0.02;100.00;99832.38;5092789;28;19935;-71
2021/04/07 02:43:48;;;;;;;;;;;;;;;0.02;100.00;99827.03;5092456;28;20288;-71
2021/04/07 02:46:14;;;;;;;;;;;;;;;0.02;100.00;99833.22;5092287;28;19928;-71
2021/04/07 02:48:40;;;;;;;;;;;;;;;0.05;100.00;99824.19;5092610;28;19924;-71
2021/04/07 02:51:06;;;;;;;;;;;;;;;0.06;100.00;99834.78;5092381;28;19969;-71
2021/04/07 02:53:32;;;;;;;;;;;;;;;0.11;100.00;99826.56;5092405;28;20356;-71
2021/04/07 02:55:58;;;;;;;;;;;;;;;0.13;100.00;99829.97;5091877;28;20006;-71
2021/04/07 02:58:24;;;;;;;;;;;;;;;0.15;100.00;99834.31;5073975;28;20395;-71
2021/04/07 03:00:50;;;;;;;;;;;;;;;0.13;100.00;99836.22;5092166;28;20361;-73
2021/04/07 03:03:16;;;;;;;;;;;;;;;0.13;100.00;99838.88;5092006;28;19923;-71
2021/04/07 03:05:41;;;;;;;;;;;;;;;0.11;100.00;99835.41;5092061;28;20019;-71
2021/04/07 03:08:08;;;;;;;;;;;;;;;0.10;100.00;99833.66;5091948;28;19989;-71
2021/04/07 03:10:34;;;;;;;;;;;;;;;0.09;100.00;99839.94;5092280;28;19978;-70
2021/04/07 03:13:00;;;;;;;;;;;;;;;0.03;100.00;99826.94;5092198;28;20022;-71
2021/04/07 03:15:26;;;;;;;;;;;;;;;0.04;100.00;99833.13;5091774;28;19979;-71
2021/04/07 03:17:52;;;;;;;;;;;;;;;0.04;100.00;99844.69;5092004;28;20011;-71
2021/04/07 03:20:17;;;;;;;;;;;;;;;0.04;100.00;99847.34;5091677;28;20571;-71
2021/04/07 03:22:43;;;;;;;;;;;;;;;0.00;100.00;99840.44;5091924;28;19931;-71
2021/04/07 03:25:11;;;;;;;;;;;;;;;0.02;100.00;99851.91;5091573;28;20395;-71
2021/04/07 03:27:37;;;;;;;;;;;;;;;0.04;100.00;99849.16;5091707;28;20295;-71
2021/04/07 03:30:03;;;;;;;;;;;;;;;0.02;100.00;99857.22;5091854;28;19967;-71
2021/04/07 03:32:29;;;;;;;;;;;;;;;0.04;100.00;99850.03;5091539;28;20014;-70
2021/04/07 03:34:55;;;;;;;;;;;;;;;0.01;100.00;99847.50;5091689;28;20391;-71
2021/04/07 03:37:21;;;;;;;;;;;;;;;0.01;100.00;99866.16;5091093;28;19975;-71
2021/04/07 03:39:47;;;;;;;;;;;;;;;-0.01;100.00;99860.91;5091688;28;19924;-70
2021/04/07 03:42:14;;;;;;;;;;;;;;;-0.03;100.00;99859.28;5091382;28;19924;-70
2021/04/07 03:44:39;;;;;;;;;;;;;;;-0.05;100.00;99859.34;5090928;28;19924;-71
2021/04/07 03:47:05;;;;;;;;;;;;;;;-0.04;100.00;99866.41;5091327;28;19924;-71
2021/04/07 03:49:31;;;;;;;;;;;;;;;-0.05;100.00;99866.50;5091551;28;20304;-71
2021/04/07 03:51:57;;;;;;;;;;;;;;;-0.10;100.00;99861.38;5091521;28;20394;-71
2021/04/07 03:54:24;;;;;;;;;;;;;;;-0.09;100.00;99872.94;5091341;28;19981;-70
2021/04/07 03:56:50;;;;;;;;;;;;;;;-0.09;100.00;99878.28;5091252;28;19924;-71
2021/04/07 03:59:16;;;;;;;;;;;;;;;-0.11;100.00;99872.16;5091294;28;19924;-71
2021/04/07 04:01:42;;;;;;;;;;;;;;;-0.11;100.00;99880.16;5073249;28;19962;-71
2021/04/07 04:04:10;;;;;;;;;;;;;;;-0.11;100.00;99872.16;5091369;28;19936;-71
2021/04/07 04:06:36;;;;;;;;;;;;;;;-0.09;100.00;99879.13;5091114;28;20380;-71
2021/04/07 04:09:02;;;;;;;;;;;;;;;-0.06;100.00;99883.44;5091316;28;19969;-70
2021/04/07 04:11:28;;;;;;;;;;;;;;;-0.08;100.00;99885.31;5091127;28;20505;-71
2021/04/07 04:13:53;;;;;;;;;;;;;;;-0.08;100.00;99885.31;5091215;28;20399;-71
2021/04/07 04:16:20;;;;;;;;;;;;;;;-0.09;100.00;99892.47;5091163;28;19965;-71
2021/04/07 04:18:46;;;;;;;;;;;;;;;-0.08;100.00;99883.53;5091146;28;19932;-71
2021/04/07 04:21:12;;;;;;;;;;;;;;;-0.07;100.00;99895.06;5090957;28;19924;-71
2021/04/07 04:23:38;;;;;;;;;;;;;;;-0.09;100.00;99899.63;5072767;28;19931;-71
2021/04/07 04:26:03;;;;;;;;;;;;;;;-0.08;100.00;99906.66;5088182;28;19948;-71
2021/04/07 04:28:29;;;;;;;;;;;;;;;-0.08;100.00;99901.31;5091012;28;19924;-71
2021/04/07 04:30:55;;;;;;;;;;;;;;;-0.07;100.00;99911.06;5072065;28;19956;-71
2021/04/07 04:33:22;;;;;;;;;;;;;;;-0.03;100.00;99915.31;5090283;28;19932;-71
2021/04/07 04:35:48;;;;;;;;;;;;;;;0.01;100.00;99916.03;5075770;28;19924;-72
2021/04/07 04:38:16;;;;;;;;;;;;;;;0.04;100.00;99916.75;5090308;28;19931;-71
2021/04/07 04:40:42;;;;;;;;;;;;;;;0.06;100.00;99916.66;5094534;28;20412;-71
2021/04/07 04:43:08;;;;;;;;;;;;;;;0.09;100.00;99922.69;5094299;28;19924;-71
2021/04/07 04:45:35;;;;;;;;;;;;;;;0.12;100.00;99921.66;5094318;28;19992;-72
2021/04/07 04:48:01;;;;;;;;;;;;;;;0.14;100.00;99917.13;5094384;28;19924;-71
2021/04/07 04:50:28;;;;;;;;;;;;;;;0.14;100.00;99928.66;5094857;28;19975;-72
2021/04/07 04:52:54;;;;;;;;;;;;;;;0.15;100.00;99927.72;5093745;28;19924;-72
2021/04/07 04:55:20;;;;;;;;;;;;;;;0.18;100.00;99934.72;5056379;28;20027;-72
2021/04/07 04:57:46;;;;;;;;;;;;;;;0.23;100.00;99940.69;5074328;28;19973;-72
2021/04/07 05:00:12;;;;;;;;;;;;;;;0.21;100.00;99939.88;5074450;28;19947;-72
2021/04/07 05:02:38;;;;;;;;;;;;;;;0.21;100.00;99942.56;5074578;28;19931;-73
2021/04/07 05:05:04;;;;;;;;;;;;;;;0.19;100.00;99948.91;5073490;28;20307;-72
2021/04/07 05:07:31;;;;;;;;;;;;;;;0.19;100.00;99951.59;5074279;28;19924;-72
2021/04/07 05:09:57;;;;;;;;;;;;;;;0.19;100.00;99956.91;5074311;28;20303;-72
2021/04/07 05:12:23;;;;;;;;;;;;;;;0.15;100.00;99958.91;5055961;28;19968;-72
2021/04/07 05:14:50;;;;;;;;;;;;;;;0.15;100.00;99962.44;5074408;28;19935;-73
2021/04/07 05:17:16;;;;;;;;;;;;;;;0.19;100.00;99978.28;5074136;28;19970;-71
2021/04/07 05:19:42;;;;;;;;;;;;;;;0.19;100.00;99975.59;5094928;28;19924;-72
2021/04/07 05:22:08;;;;;;;;;;;;;;;0.16;100.00;99971.28;5091242;28;19928;-73
2021/04/07 05:24:35;;;;;;;;;;;;;;;0.15;100.00;99975.78;5092163;28;19950;-71
2021/04/07 05:27:00;;;;;;;;;;;;;;;0.21;100.00;99981.75;5092552;28;19928;-71
2021/04/07 05:29:26;;;;;;;;;;;;;;;0.25;100.00;99983.31;5094097;28;19935;-72
2021/04/07 05:31:52;;;;;;;;;;;;;;;0.24;100.00;99989.59;5094131;28;19924;-72
2021/04/07 05:34:18;;;;;;;;;;;;;;;0.24;100.00;99992.25;5076925;28;19928;-72
2021/04/07 05:36:44;;;;;;;;;;;;;;;0.16;100.00;99993.53;5069419;28;19986;-71
2021/04/07 05:39:10;;;;;;;;;;;;;;;0.22;100.00;99995.00;5084437;28;19963;-71
2021/04/07 05:41:37;;;;;;;;;;;;;;;0.25;100.00;99999.34;5091162;28;20010;-71
2021/04/07 05:44:03;;;;;;;;;;;;;;;0.23;100.00;100006.53;5073892;28;20341;-71
2021/04/07 05:46:29;;;;;;;;;;;;;;;0.23;100.00;100007.44;5091444;28;19955;-72
2021/04/07 05:48:55;;;;;;;;;;;;;;;0.27;100.00;100018.84;5093123;28;19924;-71
2021/04/07 05:51:21;;;;;;;;;;;;;;;0.27;100.00;100013.50;5093243;28;19930;-72
2021/04/07 05:53:47;;;;;;;;;;;;;;;0.29;100.00;100017.78;5093204;28;19967;-72
2021/04/07 05:56:13;;;;;;;;;;;;;;;0.26;100.00;100015.28;5094404;28;20347;-73
2021/04/07 05:58:39;;;;;;;;;;;;;;;0.40;100.00;100019.06;5093183;28;20032;-72
2021/04/07 06:01:05;;;;;;;;;;;;;;;0.43;100.00;100019.78;5093092;28;19928;-72
2021/04/07 06:03:31;;;;;;;;;;;;;;;0.42;100.00;100018.03;5092902;28;20028;-72
2021/04/07 06:05:57;;;;;;;;;;;;;;;0.51;100.00;100022.06;5092735;28;20069;-71
2021/04/07 06:08:23;;;;;;;;;;;;;;;0.52;100.00;100022.91;5092516;28;20046;-71
2021/04/07 06:10:49;;;;;;;;;;;;;;;0.54;100.00;100037.94;5093153;28;19928;-71
2021/04/07 06:13:16;;;;;;;;;;;;;;;0.53;100.00;100030.00;5092428;28;20322;-71
2021/04/07 06:15:43;;;;;;;;;;;;;;;0.56;100.00;100029.84;5092497;28;20391;-71
2021/04/07 06:18:11;;;;;;;;;;;;;;;0.60;100.00;100026.06;5092117;28;19973;-71
2021/04/07 06:20:38;;;;;;;;;;;;;;;0.65;100.00;100030.22;5092741;28;19924;-70
2021/04/07 06:23:04;;;;;;;;;;;;;;;0.85;100.00;100030.16;5092942;28;19924;-71
2021/04/07 06:25:30;;;;;;;;;;;;;;;0.94;100.00;100037.69;5091520;28;19924;-71
2021/04/07 06:27:57;;;;;;;;;;;;;;;1.04;100.00;100027.38;5092626;28;20397;-71
2021/04/07 06:30:40;;;;;;;;;;;;;;;1.08;100.00;100037.84;5092132;28;19971;-71
2021/04/07 06:33:07;;;;;;;;;;;;;;;1.02;100.00;100027.47;5092367;28;19924;-72
2021/04/07 06:35:33;;;;;;;;;;;;;;;1.12;100.00;100038.53;5090416;28;20383;-72
2021/04/07 06:37:59;;;;;;;;;;;;;;;1.19;100.00;100039.06;5092519;28;19993;-72
2021/04/07 06:40:25;;;;;;;;;;;;;;;1.19;100.00;100049.75;5092113;28;19924;-71
2021/04/07 06:42:51;;;;;;;;;;;;;;;1.23;100.00;100046.84;5090367;28;20023;-71
2021/04/07 06:45:17;;;;;;;;;;;;;;;1.23;100.00;100054.00;5090442;28;19954;-71
2021/04/07 06:47:43;;;;;;;;;;;;;;;1.12;100.00;100058.13;5092093;28;19924;-71
2021/04/07 06:50:11;;;;;;;;;;;;;;;1.19;100.00;100060.44;5092169;28;19928;-71
2021/04/07 06:52:37;;;;;;;;;;;;;;;1.19;100.00;100064.00;5091988;28;19943;-71
2021/04/07 06:55:03;;;;;;;;;;;;;;;1.27;100.00;100061.78;5091831;28;19956;-71
2021/04/07 06:57:30;;;;;;;;;;;;;;;1.44;100.00;100065.34;5087219;28;20006;-71
2021/04/07 06:59:56;;;;;;;;;;;;;;;1.49;100.00;100069.50;5092023;28;20399;-71
2021/04/07 07:02:23;;;;;;;;;;;;;;;1.36;100.00;100065.75;5090764;28;19924;-71
2021/04/07 07:04:49;;;;;;;;;;;;;;;1.44;100.00;100058.22;5092065;28;20037;-71
2021/04/07 07:07:16;;;;;;;;;;;;;;;1.46;100.00;100071.50;5091225;28;20307;-72
2021/04/07 07:09:51;;;;;;;;;;;;;;;1.36;100.00;100065.75;5091932;28;19924;-71
2021/04/07 07:12:18;;;;;;;;;;;;;;;1.29;100.00;100075.06;5091268;28;19924;-71
2021/04/07 07:14:44;;;;;;;;;;;;;;;1.32;100.00;100073.13;5091246;28;19924;-72
2021/04/07 07:17:10;;;;;;;;;;;;;;;1.32;100.00;100073.13;5087004;28;20020;-71
2021/04/07 07:19:36;;;;;;;;;;;;;;;1.36;100.00;100076.47;5091543;28;19928;-72
2021/04/07 07:22:03;;;;;;;;;;;;;;;1.36;100.00;100072.94;5091245;28;19924;-72
2021/04/07 07:24:31;;;;;;;;;;;;;;;1.37;100.00;100080.03;5091384;28;19928;-71
2021/04/07 07:26:57;;;;;;;;;;;;;;;1.32;100.00;100078.47;5091119;28;20452;-71
2021/04/07 07:29:23;;;;;;;;;;;;;;;1.40;100.00;100075.34;5090589;28;19934;-71
2021/04/07 07:31:56;;;;;;;;;;;;;;;1.52;100.00;100079.19;5090295;28;20026;-72
2021/04/07 07:34:24;;;;;;;;;;;;;;;1.62;100.00;100077.75;5072655;28;20383;-72
2021/04/07 07:36:50;;;;;;;;;;;;;;;1.61;100.00;100084.03;5091257;28;19931;-72
2021/04/07 07:39:22;;;;;;;;;;;;;;;1.59;100.00;100085.06;5091129;28;19931;-72
2021/04/07 07:41:49;;;;;;;;;;;;;;;1.61;100.00;100077.84;5091196;28;19968;-72
2021/04/07 07:44:15;;;;;;;;;;;;;;;1.53;100.00;100072.88;5091259;28;19924;-72
2021/04/07 07:46:41;;;;;;;;;;;;;;;1.53;100.00;100088.09;5091059;28;19947;-72
2021/04/07 07:49:12;;;;;;;;;;;;;;;1.60;100.00;100093.00;5090488;28;19931;-72
2021/04/07 07:51:43;;;;;;;;;;;;;;;1.58;100.00;100096.75;5073026;28;19976;-72
2021/04/07 07:54:12;;;;;;;;;;;;;;;1.64;100.00;100104.41;5090768;28;19928;-72
2021/04/07 07:56:38;;;;;;;;;;;;;;;1.64;100.00;100110.66;5089411;28;19928;-72
2021/04/07 07:59:04;;;;;;;;;;;;;;;1.66;100.00;100108.75;5088789;28;19963;-71
2021/04/07 08:01:40;;;;;;;;;;;;;;;1.81;100.00;100108.84;5090109;28;20018;-71
2021/04/07 08:04:06;;;;;;;;;;;;;;;1.99;100.00;100131.06;5090159;28;19966;-71
2021/04/07 08:06:32;;;;;;;;;;;;;;;1.98;100.00;100127.53;5089845;28;19924;-72
2021/04/07 08:08:58;;;;;;;;;;;;;;;1.92;100.00;100127.00;5090423;28;19950;-71
2021/04/07 08:11:24;;;;;;;;;;;;;;;1.84;100.00;100139.00;5090596;28;19935;-72
2021/04/07 08:13:52;;;;;;;;;;;;;;;1.78;100.00;100136.66;5075731;28;19928;-71
2021/04/07 08:16:20;;;;;;;;;;;;;;;1.80;100.00;100139.25;5095837;28;19924;-71
2021/04/07 08:18:47;;;;;;;;;;;;;;;1.95;100.00;100132.19;5095985;28;19971;-71
2021/04/07 08:21:13;;;;;;;;;;;;;;;1.89;100.00;100135.22;5095752;28;19924;-71
2021/04/07 08:23:41;;;;;;;;;;;;;;;2.00;100.00;100141.72;5095495;28;19928;-71
2021/04/07 08:26:09;;;;;;;;;;;;;;;2.12;100.00;100145.50;5095426;28;20019;-72
2021/04/07 08:28:39;;;;;;;;;;;;;;;2.19;100.00;100143.34;5077274;28;20424;-72
2021/04/07 08:31:05;;;;;;;;;;;;;;;2.15;100.00;100144.47;5096087;28;19924;-70
2021/04/07 08:33:32;;;;;;;;;;;;;;;2.23;100.00;100144.03;5096170;28;20413;-71
2021/04/07 08:35:58;;;;;;;;;;;;;;;2.31;100.00;100141.81;5095680;28;19931;-71
2021/04/07 08:38:30;;;;;;;;;;;;;;;2.43;100.00;100146.50;5094847;28;19928;-71
2021/04/07 08:41:07;;;;;;;;;;;;;;;2.39;100.00;100139.53;5095654;28;20368;-72
2021/04/07 08:43:32;;;;;;;;;;;;;;;2.62;100.00;100140.94;5094639;28;20136;-72
2021/04/07 08:46:10;;;;;;;;;;;;;;;2.68;100.00;100139.72;5095595;28;19932;-73
2021/04/07 08:48:37;;;;;;;;;;;;;;;2.58;100.00;100151.91;5095624;28;19924;-71
2021/04/07 08:51:04;;;;;;;;;;;;;;;2.70;100.00;100153.91;5098230;28;19932;-72
2021/04/07 08:53:30;;;;;;;;;;;;;;;2.80;100.00;100147.03;5078302;28;19945;-71
2021/04/07 08:55:56;;;;;;;;;;;;;;;2.94;100.00;100150.72;5094542;28;19924;-71
2021/04/07 08:58:24;;;;;;;;;;;;;;;3.17;100.00;100150.25;5093849;28;19928;-71
2021/04/07 09:00:51;;;;;;;;;;;;;;;3.61;100.00;100158.41;5061274;28;20038;-71
2021/04/07 09:03:20;;;;;;;;;;;;;;;3.73;100.00;100151.38;5093924;28;19924;-71
2021/04/07 09:05:48;;;;;;;;;;;;;;;3.87;100.00;100163.97;5075816;28;19924;-71
2021/04/07 09:08:15;;;;;;;;;;;;;;;3.87;100.00;100158.59;5093454;28;19924;-71
2021/04/07 09:10:42;;;;;;;;;;;;;;;4.04;100.00;100160.25;5094036;28;20063;-70
2021/04/07 09:13:09;;;;;;;;;;;;;;;3.66;100.00;100153.59;5093962;28;19931;-71
2021/04/07 09:15:45;;;;;;;;;;;;;;;3.62;100.00;100168.16;5093814;28;19936;-71
2021/04/07 09:18:11;;;;;;;;;;;;;;;3.54;100.00;100165.06;5089442;28;19931;-71
2021/04/07 09:20:41;;;;;;;;;;;;;;;3.57;100.00;100179.19;5093857;28;19924;-70
2021/04/07 09:23:12;;;;;;;;;;;;;;;3.56;100.00;100171.22;5093438;28;19932;-71
2021/04/07 09:25:38;;;;;;;;;;;;;;;3.68;100.00;100162.41;5092638;28;20398;-71
2021/04/07 09:28:06;;;;;;;;;;;;;;;3.98;100.00;100170.41;5093664;28;19924;-71
2021/04/07 09:30:38;;;;;;;;;;;;;;;3.97;100.00;100165.97;5075565;28;19971;-72
2021/04/07 09:33:05;;;;;;;;;;;;;;;4.19;100.00;100170.84;5075277;28;19924;-73
2021/04/07 09:35:31;;;;;;;;;;;;;;;4.05;100.00;100164.63;5093420;28;20383;-72
2021/04/07 09:37:58;;;;;;;;;;;;;;;3.85;100.00;100162.25;5093200;28;19924;-73
2021/04/07 09:40:25;;;;;;;;;;;;;;;3.78;100.00;100163.59;5074922;28;20037;-72
2021/04/07 09:42:52;;;;;;;;;;;;;;;4.56;100.00;100172.13;5093158;28;19931;-72
2021/04/07 09:45:22;;;;;;;;;;;;;;;5.24;100.00;100168.53;5074770;28;20280;-72
2021/04/07 09:47:53;;;;;;;;;;;;;;;5.50;100.00;100157.81;5090511;28;19932;-72
2021/04/07 09:50:20;;;;;;;;;;;;;;;5.78;100.00;100162.13;5093628;28;19978;-73
2021/04/07 09:52:47;;;;;;;;;;;;;;;6.11;100.00;100160.75;5093227;28;19959;-72
2021/04/07 09:55:19;;;;;;;;;;;;;;;5.60;100.00;100175.06;5092670;28;20058;-72
2021/04/07 09:57:55;;;;;;;;;;;;;;;5.27;100.00;100165.63;5093345;28;20341;-71
2021/04/07 10:00:26;;;;;;;;;;;;;;;4.69;100.00;100170.41;5092480;28;19955;-71
2021/04/07 10:02:52;;;;;;;;;;;;;;;4.59;100.00;100166.56;5070349;28;19932;-72
2021/04/07 10:05:25;;;;;;;;;;;;;;;5.60;99.97;100163.41;5092117;28;19925;-72
2021/04/07 10:07:50;;;;;;;;;;;;;;;5.66;98.20;100158.47;5092575;28;19924;-71
2021/04/07 10:10:16;;;;;;;;;;;;;;;5.27;100.00;100165.63;5092238;28;19931;-71
2021/04/07 10:12:42;;;;;;;;;;;;;;;5.05;100.00;100171.63;5091699;28;20015;-71
2021/04/07 10:15:09;;;;;;;;;;;;;;;4.62;100.00;100174.44;5092816;28;19939;-71
2021/04/07 10:17:36;;;;;;;;;;;;;;;4.64;100.00;100176.06;5073683;28;20005;-71
2021/04/07 10:20:06;;;;;;;;;;;;;;;6.05;100.00;100174.66;5092383;28;19931;-71
2021/04/07 10:22:32;;;;;;;;;;;;;;;6.26;91.38;100176.78;5092690;28;19924;-72
2021/04/07 10:25:02;;;;;;;;;;;;;;;7.03;88.38;100168.47;5088576;28;20023;-71
2021/04/07 10:27:28;;;;;;;;;;;;;;;7.66;81.38;100170.88;5091996;28;19932;-72
2021/04/07 10:30:05;;;;;;;;;;;;;;;6.92;76.98;100168.38;5081868;28;19924;-71
2021/04/07 10:32:37;;;;;;;;;;;;;;;5.99;74.73;100158.94;5106687;28;19968;-72
2021/04/07 10:35:04;;;;;;;;;;;;;;;6.15;74.02;100174.88;5099177;28;19946;-71
2021/04/07 10:37:30;;;;;;;;;;;;;;;6.57;69.89;100177.25;5090160;28;19974;-72
2021/04/07 10:39:56;;;;;;;;;;;;;;;7.01;67.59;100170.41;5091615;28;19963;-71
2021/04/07 10:42:22;;;;;;;;;;;;;;;7.03;66.79;100172.00;5088552;28;20036;-71
2021/04/07 10:44:56;;;;;;;;;;;;;;;6.61;71.44;100163.41;5091632;28;20304;-71
2021/04/07 10:47:22;;;;;;;;;;;;;;;6.69;69.86;100181.75;5080751;28;20299;-71
2021/04/07 10:49:53;;;;;;;;;;;;;;;5.87;74.81;100184.88;5090401;28;19924;-72
2021/04/07 10:52:29;;;;;;;;;;;;;;;5.29;79.69;100184.34;5084113;28;19935;-73
2021/04/07 10:54:55;;;;;;;;;;;;;;;5.39;82.68;100192.69;5091664;28;19973;-72
2021/04/07 10:57:29;;;;;;;;;;;;;;;5.63;84.23;100199.06;5091870;28;19928;-72
2021/04/07 10:59:55;;;;;;;;;;;;;;;5.65;86.32;100201.66;5092011;28;19924;-72
2021/04/07 11:02:21;;;;;;;;;;;;;;;5.17;86.71;100191.44;5091553;28;20023;-72
2021/04/07 11:04:47;;;;;;;;;;;;;;;4.90;83.26;100194.13;5091296;28;20035;-71
2021/04/07 11:07:16;;;;;;;;;;;;;;;5.22;85.32;100199.22;5091911;28;19928;-71
2021/04/07 11:09:45;;;;;;;;;;;;;;;5.18;85.56;100202.13;5073630;28;19924;-72
2021/04/07 11:12:11;;;;;;;;;;;;;;;5.45;88.00;100203.03;5091666;28;19924;-72
2021/04/07 11:14:38;;;;;;;;;;;;;;;5.37;85.35;100203.53;5090907;28;19924;-71
2021/04/07 11:17:05;;;;;;;;;;;;;;;5.61;84.90;100200.13;5091607;28;19924;-73
2021/04/07 11:19:34;;;;;;;;;;;;;;;5.49;82.86;100213.50;5091492;28;20148;-72
2021/04/07 11:22:01;;;;;;;;;;;;;;;5.36;85.70;100212.59;5091656;28;19935;-71
2021/04/07 11:24:28;;;;;;;;;;;;;;;5.24;89.35;100216.09;5107065;28;19935;-72
2021/04/07 11:26:54;;;;;;;;;;;;;;;4.90;91.55;100212.97;5091435;28;19935;-71
2021/04/07 11:29:20;;;;;;;;;;;;;;;4.77;93.00;100218.28;5072946;28;19977;-71
2021/04/07 11:31:48;;;;;;;;;;;;;;;4.48;94.97;100208.44;5091390;28;19928;-72
2021/04/07 11:34:16;;;;;;;;;;;;;;;4.57;97.39;100219.56;5090801;28;20457;-72
2021/04/07 11:36:56;;;;;;;;;;;;;;;4.76;98.02;100220.13;5073272;28;19924;-72
2021/04/07 11:39:26;;;;;;;;;;;;;;;4.94;96.75;100228.78;5091057;28;19927;-71
2021/04/07 11:44:33;;;;;;;;;;;;;;;5.31;96.97;100225.50;5087635;28;19977;-71
2021/04/07 11:47:00;;;;;;;;;;;;;;;5.04;94.38;100218.31;5091048;28;19928;-71
2021/04/07 11:49:26;;;;;;;;;;;;;;;4.74;97.14;100221.19;5090435;28;19928;-71
2021/04/07 11:51:53;;;;;;;;;;;;;;;4.57;99.36;100225.81;5090979;28;19925;-71
2021/04/07 11:54:18;;;;;;;;;;;;;;;4.33;99.84;100217.50;5088831;28;19967;-72
2021/04/07 11:56:45;;;;;;;;;;;;;;;4.05;100.00;100212.97;5090652;28;19930;-71
2021/04/07 11:59:14;;;;;;;;;;;;;;;4.39;100.00;100233.22;5089625;28;21480;-72
2021/04/07 12:01:40;;;;;;;;;;;;;;;4.59;100.00;100233.78;5090840;28;20442;-72
2021/04/07 12:04:06;;;;;;;;;;;;;;;4.75;100.00;100213.00;5091196;28;19946;-72
2021/04/07 12:06:32;;;;;;;;;;;;;;;5.07;100.00;100223.47;5090359;28;19935;-72
2021/04/07 12:08:58;;;;;;;;;;;;;;;4.80;98.91;100235.09;5073223;28;19924;-72
2021/04/07 12:11:24;;;;;;;;;;;;;;;4.39;100.00;100227.00;5090185;28;19931;-72
2021/04/07 12:13:50;;;;;;;;;;;;;;;4.81;100.00;100220.69;5072582;28;19928;-72
2021/04/07 12:16:17;;;;;;;;;;;;;;;4.74;100.00;100232.78;5090687;28;20303;-71
2021/04/07 12:18:42;;;;;;;;;;;;;;;4.64;100.00;100227.16;5090048;28;19975;-71
2021/04/07 12:21:08;;;;;;;;;;;;;;;4.73;100.00;100225.69;5091239;28;19982;-73
2021/04/07 12:23:34;;;;;;;;;;;;;;;4.61;100.00;100229.16;5090663;28;19924;-70
2021/04/07 12:26:00;;;;;;;;;;;;;;;4.45;100.00;100216.72;5089963;28;19928;-71
2021/04/07 12:28:26;;;;;;;;;;;;;;;4.36;100.00;100209.25;5090502;28;19994;-71
2021/04/07 12:30:52;;;;;;;;;;;;;;;4.57;100.00;100211.50;5090378;28;19932;-71
2021/04/07 12:33:21;;;;;;;;;;;;;;;4.80;100.00;100218.94;5090376;28;19931;-71
2021/04/07 12:36:03;;;;;;;;;;;;;;;4.95;100.00;100217.06;5089973;28;20431;-71
2021/04/07 12:38:31;;;;;;;;;;;;;;;5.04;100.00;100226.38;5089996;28;19931;-70
2021/04/07 12:40:58;;;;;;;;;;;;;;;4.78;100.00;100204.72;5072338;28;19960;-70
2021/04/07 12:43:24;;;;;;;;;;;;;;;4.69;100.00;100216.09;5072210;28;20019;-70